Time;durP1;ratioP1;P1;durP2;ratioP2;P2;SDS_P1;SDS_P2;PMS_P1;PMS_P2;Temp;Humidity;BMP_temperature;BMP_pressure;BME280_temperature;BME280_humidity;BME280_pressure;Samples;Min_cycle;Max_cycle;Signal;HPM_P1;HPM_P2
2021/01/17 00:01:08;;;;;;;39.83;20.77;;;-0.10;99.90;;;;;;5004645;28;20181;-75
2021/01/17 00:03:33;;;;;;;32.13;20.60;;;-0.10;99.90;;;;;;5002115;28;20185;-75
2021/01/17 00:05:59;;;;;;;34.77;19.70;;;-0.10;99.90;;;;;;5009783;28;20209;-75
2021/01/17 00:08:24;;;;;;;35.87;22.47;;;0.00;99.90;;;;;;5018587;28;20222;-75
2021/01/17 00:10:50;;;;;;;39.53;21.40;;;0.00;99.90;;;;;;5000822;28;20180;-75
2021/01/17 00:13:16;;;;;;;39.90;20.10;;;0.00;99.90;;;;;;5011746;28;20194;-75
2021/01/17 00:15:41;;;;;;;40.00;21.17;;;0.00;99.90;;;;;;5004795;28;20211;-75
2021/01/17 00:18:07;;;;;;;39.43;22.50;;;0.00;99.90;;;;;;4995833;28;20431;-75
2021/01/17 00:20:33;;;;;;;35.80;21.07;;;0.00;99.90;;;;;;4997354;28;20263;-75
2021/01/17 00:23:03;;;;;;;40.47;22.27;;;0.10;99.90;;;;;;5014605;28;20457;-75
2021/01/17 00:25:29;;;;;;;35.63;21.50;;;0.10;99.90;;;;;;5010463;28;20985;-75
2021/01/17 00:27:56;;;;;;;42.67;22.03;;;0.10;99.90;;;;;;5001861;28;20442;-75
2021/01/17 00:30:26;;;;;;;41.17;22.60;;;0.10;99.90;;;;;;5016260;28;20265;-75
2021/01/17 00:32:54;;;;;;;36.33;20.20;;;0.10;99.90;;;;;;5017072;28;20860;-75
2021/01/17 00:35:22;;;;;;;31.73;20.60;;;0.10;99.90;;;;;;4997337;28;20541;-75
2021/01/17 00:37:51;;;;;;;35.20;20.43;;;0.10;99.90;;;;;;5012821;28;20436;-75
2021/01/17 00:40:17;;;;;;;40.10;22.57;;;0.00;99.90;;;;;;5031596;28;20954;-75
2021/01/17 00:42:47;;;;;;;39.70;20.73;;;0.10;99.90;;;;;;5029277;28;20435;-75
2021/01/17 00:45:14;;;;;;;33.53;20.60;;;0.10;99.90;;;;;;5010201;28;20484;-75
2021/01/17 00:47:46;;;;;;;39.10;21.50;;;0.10;99.90;;;;;;4995171;28;20516;-75
2021/01/17 00:50:13;;;;;;;46.53;21.83;;;0.10;99.90;;;;;;5010005;28;20534;-75
2021/01/17 00:52:39;;;;;;;37.13;20.77;;;0.20;99.90;;;;;;5004253;28;20445;-75
2021/01/17 00:55:06;;;;;;;34.73;20.67;;;0.20;99.90;;;;;;5004705;28;20967;-76
2021/01/17 00:57:33;;;;;;;34.70;20.47;;;0.30;99.90;;;;;;5006209;28;20633;-75
2021/01/17 00:59:59;;;;;;;34.50;21.03;;;0.30;99.90;;;;;;5005396;28;20828;-75
2021/01/17 01:02:24;;;;;;;35.87;20.87;;;0.30;99.90;;;;;;4998106;28;20423;-75
2021/01/17 01:04:50;;;;;;;37.23;19.57;;;0.40;99.90;;;;;;5015799;28;20247;-75
2021/01/17 01:07:16;;;;;;;36.13;20.77;;;0.50;99.90;;;;;;5011744;28;20259;-75
2021/01/17 01:09:41;;;;;;;40.90;21.63;;;0.50;99.90;;;;;;5010544;28;20513;-75
2021/01/17 01:12:07;;;;;;;36.77;21.63;;;0.60;99.90;;;;;;5006752;28;20658;-75
2021/01/17 01:14:33;;;;;;;43.23;23.70;;;0.60;99.90;;;;;;5008504;28;20238;-75
2021/01/17 01:16:59;;;;;;;31.97;20.03;;;0.60;99.90;;;;;;5010118;28;20517;-75
2021/01/17 01:19:24;;;;;;;31.30;20.20;;;0.60;99.90;;;;;;5013698;28;20230;-75
2021/01/17 01:21:50;;;;;;;36.47;22.03;;;0.70;99.90;;;;;;5013439;28;20176;-75
2021/01/17 01:24:16;;;;;;;36.00;20.80;;;0.70;99.90;;;;;;5014974;28;20281;-75
2021/01/17 01:26:44;;;;;;;38.47;22.07;;;0.70;99.90;;;;;;5012852;28;20175;-75
2021/01/17 01:29:11;;;;;;;36.57;19.30;;;0.60;99.90;;;;;;5006070;28;20184;-75
2021/01/17 01:31:37;;;;;;;36.47;20.63;;;0.70;99.90;;;;;;5009469;28;20412;-75
2021/01/17 01:34:04;;;;;;;40.37;21.73;;;0.70;99.90;;;;;;5022333;28;20446;-75
2021/01/17 01:36:35;;;;;;;31.30;18.03;;;0.60;99.90;;;;;;5014034;28;20423;-75
2021/01/17 01:39:03;;;;;;;34.53;20.50;;;0.80;99.90;;;;;;5030114;28;20813;-75
2021/01/17 01:41:31;;;;;;;38.90;19.63;;;0.90;99.90;;;;;;5006550;28;20439;-75
2021/01/17 01:43:57;;;;;;;29.10;18.33;;;0.80;99.90;;;;;;5002884;28;20812;-75
2021/01/17 01:46:25;;;;;;;33.73;19.77;;;1.00;99.90;;;;;;5020033;28;20435;-74
2021/01/17 01:48:53;;;;;;;31.97;18.67;;;1.00;99.90;;;;;;5012529;28;20433;-74
2021/01/17 01:51:19;;;;;;;38.27;20.87;;;0.90;99.90;;;;;;4994924;28;20503;-74
2021/01/17 01:53:46;;;;;;;34.87;19.40;;;0.90;99.90;;;;;;4995031;28;20509;-74
2021/01/17 01:56:15;;;;;;;33.37;19.33;;;1.00;99.90;;;;;;5005414;28;20430;-74
2021/01/17 01:58:42;;;;;;;42.30;21.07;;;1.00;99.90;;;;;;5027414;28;20429;-74
2021/01/17 02:01:08;;;;;;;35.63;20.07;;;1.00;99.90;;;;;;5003781;28;20858;-75
2021/01/17 02:03:34;;;;;;;40.20;18.43;;;0.90;99.90;;;;;;4994911;28;20833;-75
2021/01/17 02:06:00;;;;;;;32.27;19.07;;;0.80;99.90;;;;;;5011281;28;20457;-75
2021/01/17 02:08:57;;;;;;;31.77;19.30;;;0.80;99.90;;;;;;5012329;28;20192;-75
2021/01/17 02:11:31;;;;;;;35.80;19.23;;;0.80;99.90;;;;;;5011847;28;20430;-75
2021/01/17 02:14:36;;;;;;;33.27;19.87;;;0.80;99.90;;;;;;5019681;28;20460;-75
2021/01/17 02:17:07;;;;;;;32.33;17.43;;;0.70;99.90;;;;;;5012889;28;20466;-75
2021/01/17 02:20:09;;;;;;;32.03;20.27;;;0.70;99.90;;;;;;5011608;28;20422;-75
2021/01/17 02:22:50;;;;;;;36.07;20.07;;;0.60;99.90;;;;;;5018757;28;20430;-74
2021/01/17 02:25:17;;;;;;;41.30;23.23;;;0.70;99.90;;;;;;4993785;28;20464;-75
2021/01/17 02:27:45;;;;;;;37.30;20.10;;;0.90;99.90;;;;;;4994744;28;20466;-75
2021/01/17 02:30:13;;;;;;;35.73;20.40;;;0.90;99.90;;;;;;4994418;28;20423;-74
2021/01/17 02:32:53;;;;;;;31.73;20.80;;;1.00;99.90;;;;;;5009709;28;20964;-75
2021/01/17 02:35:21;;;;;;;29.93;19.90;;;1.10;99.90;;;;;;5007677;28;20810;-75
2021/01/17 02:38:34;;;;;;;32.73;20.63;;;1.20;99.90;;;;;;5012602;28;20429;-75
2021/01/17 02:41:09;;;;;;;30.20;19.10;;;1.20;99.90;;;;;;5012832;28;20441;-75
2021/01/17 02:43:35;;;;;;;33.77;20.50;;;1.20;99.90;;;;;;5013428;28;20508;-75
2021/01/17 02:46:00;;;;;;;30.30;19.10;;;1.10;99.90;;;;;;5012643;28;20948;-75
2021/01/17 02:48:26;;;;;;;37.80;20.00;;;0.90;99.90;;;;;;5001986;28;20493;-75
2021/01/17 02:50:52;;;;;;;36.87;20.20;;;0.90;99.90;;;;;;5013586;28;20218;-75
2021/01/17 02:53:33;;;;;;;37.57;18.97;;;0.90;99.90;;;;;;5009028;28;20184;-75
2021/01/17 02:56:01;;;;;;;35.20;20.13;;;0.90;99.90;;;;;;5001676;28;20186;-75
2021/01/17 02:58:28;;;;;;;33.50;20.50;;;0.90;99.90;;;;;;5013187;28;20454;-75
2021/01/17 03:00:56;;;;;;;34.27;19.70;;;0.90;99.90;;;;;;5020864;28;20431;-75
2021/01/17 03:03:35;;;;;;;35.50;21.70;;;1.00;99.90;;;;;;5013089;28;20538;-75
2021/01/17 03:06:06;;;;;;;37.10;19.97;;;1.00;99.90;;;;;;5026565;28;20504;-75
2021/01/17 03:08:32;;;;;;;35.63;18.67;;;1.00;99.90;;;;;;5007792;28;20460;-75
2021/01/17 03:10:57;;;;;;;30.30;18.80;;;0.90;99.90;;;;;;4999148;28;20490;-75
2021/01/17 03:13:24;;;;;;;35.40;20.70;;;1.00;99.90;;;;;;5008606;28;20420;-75
2021/01/17 03:15:51;;;;;;;34.83;19.60;;;0.90;99.90;;;;;;5008669;28;20540;-75
2021/01/17 03:18:16;;;;;;;39.17;22.40;;;0.90;99.90;;;;;;4993446;28;20435;-75
2021/01/17 03:20:42;;;;;;;35.30;18.90;;;0.80;99.90;;;;;;5016747;28;20434;-75
2021/01/17 03:23:07;;;;;;;34.90;20.00;;;0.80;99.90;;;;;;5008922;28;20207;-75
2021/01/17 03:25:33;;;;;;;35.53;20.30;;;0.80;99.90;;;;;;4997481;28;20572;-75
2021/01/17 03:27:59;;;;;;;32.93;19.90;;;0.80;99.90;;;;;;5008855;28;20184;-75
2021/01/17 03:30:24;;;;;;;36.60;20.47;;;0.80;99.90;;;;;;5012385;28;20645;-75
2021/01/17 03:32:50;;;;;;;32.87;18.97;;;0.60;99.90;;;;;;5012601;28;20176;-75
2021/01/17 03:35:15;;;;;;;31.37;19.03;;;0.60;99.90;;;;;;5001851;28;20247;-75
2021/01/17 03:37:41;;;;;;;41.93;21.90;;;0.70;99.90;;;;;;5026979;28;20191;-75
2021/01/17 03:40:07;;;;;;;36.47;19.10;;;0.70;99.90;;;;;;4994240;28;20513;-75
2021/01/17 03:42:33;;;;;;;35.73;20.40;;;0.80;99.90;;;;;;5007912;28;20268;-75
2021/01/17 03:44:59;;;;;;;37.33;18.63;;;0.80;99.90;;;;;;5001096;28;20502;-75
2021/01/17 03:47:25;;;;;;;32.27;20.83;;;0.80;99.90;;;;;;5010686;28;20496;-75
2021/01/17 03:49:50;;;;;;;30.90;18.80;;;0.80;99.90;;;;;;4996887;28;20428;-75
2021/01/17 03:52:16;;;;;;;33.97;19.60;;;0.80;99.90;;;;;;5010043;28;20295;-75
2021/01/17 03:54:42;;;;;;;39.30;21.57;;;0.80;99.90;;;;;;5007007;28;20200;-75
2021/01/17 03:57:07;;;;;;;36.63;22.00;;;0.90;99.90;;;;;;4992874;28;20181;-75
2021/01/17 03:59:33;;;;;;;31.57;19.33;;;0.80;99.90;;;;;;5008636;28;20262;-75
2021/01/17 04:01:58;;;;;;;32.40;18.83;;;0.80;99.90;;;;;;5011077;28;20659;-75
2021/01/17 04:04:24;;;;;;;35.93;21.00;;;0.80;99.90;;;;;;5002539;28;20204;-75
2021/01/17 04:06:50;;;;;;;34.17;18.97;;;0.90;99.90;;;;;;5004539;28;20647;-75
2021/01/17 04:09:16;;;;;;;42.17;21.07;;;0.80;99.90;;;;;;4992751;28;20180;-75
2021/01/17 04:11:42;;;;;;;35.07;18.77;;;0.80;99.90;;;;;;4992494;28;20172;-75
2021/01/17 04:14:08;;;;;;;35.27;20.40;;;0.70;99.90;;;;;;5008143;28;20443;-75
2021/01/17 04:16:33;;;;;;;44.17;22.07;;;0.60;99.90;;;;;;5026557;28;20514;-75
2021/01/17 04:18:59;;;;;;;40.83;19.97;;;0.50;99.90;;;;;;5011640;28;20205;-75
2021/01/17 04:21:24;;;;;;;36.03;21.10;;;0.60;99.90;;;;;;5000752;28;20225;-75
2021/01/17 04:23:50;;;;;;;38.07;22.37;;;0.60;99.90;;;;;;4992487;28;20572;-75
2021/01/17 04:26:19;;;;;;;29.23;19.70;;;0.60;99.90;;;;;;5012032;28;20184;-75
2021/01/17 04:28:45;;;;;;;39.17;22.00;;;0.60;99.90;;;;;;5024582;28;20175;-75
2021/01/17 04:31:10;;;;;;;44.47;23.07;;;0.50;99.90;;;;;;5022846;28;20516;-75
2021/01/17 04:33:36;;;;;;;39.63;21.60;;;0.60;99.90;;;;;;5030963;28;20210;-75
2021/01/17 04:36:02;;;;;;;39.33;22.60;;;0.60;99.90;;;;;;5014994;28;20699;-75
2021/01/17 04:38:30;;;;;;;39.70;22.87;;;0.50;99.90;;;;;;5027290;28;20184;-75
2021/01/17 04:41:03;;;;;;;40.27;20.47;;;0.50;99.90;;;;;;5012018;28;20172;-75
2021/01/17 04:43:32;;;;;;;34.70;19.97;;;0.60;99.90;;;;;;5011913;28;20914;-75
2021/01/17 04:46:00;;;;;;;38.77;22.30;;;0.50;99.90;;;;;;5011858;28;20493;-75
2021/01/17 04:48:27;;;;;;;38.87;21.40;;;0.50;99.90;;;;;;5012403;28;20454;-75
2021/01/17 04:51:01;;;;;;;43.23;21.00;;;0.50;99.90;;;;;;5030168;28;20473;-75
2021/01/17 04:53:32;;;;;;;39.23;21.10;;;0.50;99.90;;;;;;5015524;28;20423;-75
2021/01/17 04:56:15;;;;;;;42.70;21.90;;;0.50;99.90;;;;;;5011224;28;20455;-75
2021/01/17 04:58:44;;;;;;;41.57;21.50;;;0.60;99.90;;;;;;5013252;28;20523;-75
2021/01/17 05:01:21;;;;;;;39.50;21.17;;;0.60;99.90;;;;;;5011153;28;20776;-75
2021/01/17 05:04:02;;;;;;;47.10;22.80;;;0.70;99.90;;;;;;4996890;28;20768;-75
2021/01/17 05:06:29;;;;;;;39.70;21.40;;;0.70;99.90;;;;;;4996395;28;20451;-75
2021/01/17 05:09:03;;;;;;;40.03;21.70;;;0.70;99.90;;;;;;5011024;28;20424;-75
2021/01/17 05:11:35;;;;;;;43.07;21.60;;;0.70;99.90;;;;;;4995733;28;20487;-75
2021/01/17 05:14:13;;;;;;;37.30;20.50;;;0.70;99.90;;;;;;4995854;28;20418;-75
2021/01/17 05:16:43;;;;;;;47.93;22.40;;;0.80;99.90;;;;;;4996102;28;20442;-75
2021/01/17 05:19:13;;;;;;;39.37;21.00;;;0.80;99.90;;;;;;5015058;28;20506;-75
2021/01/17 05:21:43;;;;;;;40.70;21.43;;;0.80;99.90;;;;;;5015118;28;20426;-75
2021/01/17 05:24:12;;;;;;;40.47;22.43;;;0.70;99.90;;;;;;5015228;28;20561;-75
2021/01/17 05:26:41;;;;;;;43.53;21.87;;;0.60;99.90;;;;;;5015298;28;20407;-75
2021/01/17 05:29:07;;;;;;;33.00;19.23;;;0.50;99.90;;;;;;5015152;28;20396;-75
2021/01/17 05:31:33;;;;;;;38.10;21.17;;;0.50;99.90;;;;;;5010350;28;20938;-75
2021/01/17 05:33:59;;;;;;;35.90;21.03;;;0.50;99.90;;;;;;4996884;28;20466;-75
2021/01/17 05:36:25;;;;;;;39.67;23.83;;;0.60;99.90;;;;;;5010657;28;20460;-75
2021/01/17 05:39:02;;;;;;;43.03;23.17;;;0.60;99.90;;;;;;5010709;28;20455;-75
2021/01/17 05:41:27;;;;;;;44.03;21.30;;;0.60;99.90;;;;;;4995151;28;20197;-75
2021/01/17 05:43:53;;;;;;;40.90;21.70;;;0.60;99.90;;;;;;4995186;28;20428;-75
2021/01/17 05:46:19;;;;;;;41.57;22.17;;;0.60;99.90;;;;;;5000580;28;20217;-75
2021/01/17 05:48:45;;;;;;;38.30;22.33;;;0.70;99.90;;;;;;4995184;28;20187;-75
2021/01/17 05:51:24;;;;;;;40.20;22.47;;;0.70;99.90;;;;;;4995017;28;20181;-75
2021/01/17 05:53:50;;;;;;;37.50;20.47;;;0.70;99.90;;;;;;4995157;28;20202;-75
2021/01/17 05:56:16;;;;;;;44.53;20.23;;;0.70;99.90;;;;;;5010117;28;20427;-75
2021/01/17 05:58:44;;;;;;;38.27;20.13;;;0.70;99.90;;;;;;4995556;28;20222;-75
2021/01/17 06:01:20;;;;;;;40.60;20.03;;;0.70;99.90;;;;;;5009431;28;20175;-75
2021/01/17 06:03:53;;;;;;;40.70;20.87;;;0.60;99.90;;;;;;4994957;28;20602;-75
2021/01/17 06:06:26;;;;;;;38.93;20.73;;;0.60;99.90;;;;;;5009972;28;20425;-75
2021/01/17 06:08:57;;;;;;;36.20;20.40;;;0.60;99.90;;;;;;5006935;28;20426;-75
2021/01/17 06:11:24;;;;;;;37.23;19.80;;;0.60;99.90;;;;;;5009773;28;20426;-75
2021/01/17 06:14:02;;;;;;;36.47;20.37;;;0.60;99.90;;;;;;5014324;28;20921;-75
2021/01/17 06:16:39;;;;;;;39.63;22.77;;;0.60;99.90;;;;;;5029616;28;20415;-75
2021/01/17 06:19:06;;;;;;;38.27;20.73;;;0.60;99.90;;;;;;5000492;28;20474;-75
2021/01/17 06:21:33;;;;;;;37.23;19.80;;;0.60;99.90;;;;;;5009591;28;20435;-75
2021/01/17 06:24:01;;;;;;;37.00;19.93;;;0.60;99.90;;;;;;5002780;28;20447;-75
2021/01/17 06:26:32;;;;;;;36.97;19.80;;;0.60;99.90;;;;;;5003644;28;20545;-75
2021/01/17 06:28:59;;;;;;;39.70;22.40;;;0.60;99.90;;;;;;5017521;28;21027;-75
2021/01/17 06:31:30;;;;;;;47.43;23.53;;;0.60;99.90;;;;;;5012608;28;20926;-75
2021/01/17 06:34:14;;;;;;;37.00;20.50;;;0.70;99.90;;;;;;5011635;28;20805;-75
2021/01/17 06:36:42;;;;;;;46.43;21.57;;;0.70;99.90;;;;;;5001921;28;20426;-75
2021/01/17 06:39:21;;;;;;;42.20;20.57;;;0.70;99.90;;;;;;5010294;28;20950;-75
2021/01/17 06:41:49;;;;;;;40.90;20.87;;;0.80;99.90;;;;;;4997916;28;20431;-75
2021/01/17 06:44:15;;;;;;;41.37;20.60;;;0.80;99.90;;;;;;4994218;28;20477;-75
2021/01/17 06:46:43;;;;;;;38.50;21.00;;;0.80;99.90;;;;;;4997408;28;20451;-75
2021/01/17 06:49:20;;;;;;;37.63;22.90;;;0.80;99.90;;;;;;4995025;28;20440;-75
2021/01/17 06:51:47;;;;;;;35.20;20.97;;;0.80;99.90;;;;;;5024043;28;20447;-75
2021/01/17 06:54:16;;;;;;;39.10;21.43;;;0.80;99.90;;;;;;4995024;28;20461;-75
2021/01/17 06:56:47;;;;;;;42.17;23.43;;;0.80;99.90;;;;;;5004511;28;21009;-75
2021/01/17 06:59:13;;;;;;;35.73;21.70;;;0.80;99.90;;;;;;5009697;28;21353;-75
2021/01/17 07:01:43;;;;;;;38.20;21.60;;;0.80;99.90;;;;;;5017218;28;20441;-74
2021/01/17 07:04:12;;;;;;;46.47;21.87;;;0.80;99.90;;;;;;5003524;28;20211;-75
2021/01/17 07:07:05;;;;;;;41.90;21.30;;;0.90;99.90;;;;;;4993665;28;20527;-75
2021/01/17 07:09:50;;;;;;;38.57;21.13;;;0.90;99.90;;;;;;5010564;28;20439;-75
2021/01/17 07:12:19;;;;;;;41.53;22.07;;;0.80;99.90;;;;;;5006048;28;20439;-75
2021/01/17 07:15:11;;;;;;;37.90;20.83;;;0.80;99.90;;;;;;4996166;28;20487;-75
2021/01/17 07:17:42;;;;;;;33.00;20.07;;;0.90;99.90;;;;;;5019527;28;20824;-75
2021/01/17 07:20:09;;;;;;;39.57;22.10;;;0.90;99.90;;;;;;5000902;28;20514;-75
2021/01/17 07:22:37;;;;;;;45.30;21.87;;;1.00;99.90;;;;;;5001666;28;20432;-75
2021/01/17 07:25:07;;;;;;;37.43;21.80;;;0.90;99.90;;;;;;5014023;28;20844;-75
2021/01/17 07:27:42;;;;;;;38.93;21.13;;;0.90;99.90;;;;;;5000191;28;20439;-75
2021/01/17 07:30:17;;;;;;;43.73;22.50;;;1.10;99.90;;;;;;4997737;28;20428;-75
2021/01/17 07:32:53;;;;;;;39.23;23.70;;;1.10;99.90;;;;;;5008316;28;20439;-75
2021/01/17 07:35:24;;;;;;;40.97;21.07;;;1.20;99.90;;;;;;4993459;28;20505;-75
2021/01/17 07:37:54;;;;;;;34.77;22.90;;;1.20;99.90;;;;;;4993548;28;20426;-75
2021/01/17 07:43:08;;;;;;;43.77;23.73;;;1.20;99.90;;;;;;5013075;28;20541;-75
2021/01/17 07:45:39;;;;;;;37.53;21.97;;;1.30;99.90;;;;;;5003183;28;20554;-75
2021/01/17 07:48:08;;;;;;;42.90;22.70;;;1.20;99.90;;;;;;5000654;28;20654;-74
2021/01/17 07:50:37;;;;;;;44.53;24.27;;;1.20;99.90;;;;;;5001903;28;20443;-74
2021/01/17 07:53:22;;;;;;;40.17;22.80;;;1.30;99.90;;;;;;5006438;28;20430;-75
2021/01/17 07:55:49;;;;;;;39.57;22.23;;;1.20;99.90;;;;;;5004539;28;20439;-75
2021/01/17 07:58:17;;;;;;;42.10;23.40;;;1.10;99.90;;;;;;5013987;28;20796;-75
2021/01/17 08:00:43;;;;;;;44.67;25.10;;;1.10;99.90;;;;;;5006491;28;20437;-75
2021/01/17 08:03:22;;;;;;;44.37;23.33;;;1.10;99.90;;;;;;5010553;28;20431;-75
2021/01/17 08:05:53;;;;;;;51.63;26.20;;;1.20;99.90;;;;;;4993806;28;20593;-75
2021/01/17 08:08:46;;;;;;;51.77;24.60;;;1.30;99.90;;;;;;4992410;28;21036;-75
2021/01/17 08:11:42;;;;;;;37.70;23.00;;;1.40;99.90;;;;;;4992586;28;20750;-75
2021/01/17 08:14:19;;;;;;;46.43;24.87;;;1.50;99.90;;;;;;4993985;28;20497;-75
2021/01/17 08:17:08;;;;;;;51.83;26.20;;;1.50;99.90;;;;;;5006975;28;20446;-75
2021/01/17 08:19:53;;;;;;;42.00;24.33;;;1.40;99.90;;;;;;4998879;28;20441;-75
2021/01/17 08:22:22;;;;;;;48.90;26.07;;;1.30;99.90;;;;;;5010461;28;20419;-75
2021/01/17 08:24:50;;;;;;;52.37;26.90;;;1.30;99.90;;;;;;5003510;28;20466;-75
2021/01/17 08:27:27;;;;;;;48.30;24.40;;;1.30;99.90;;;;;;4998848;28;20526;-75
2021/01/17 08:30:11;;;;;;;51.27;24.73;;;1.40;99.90;;;;;;5001422;28;21194;-75
2021/01/17 08:32:38;;;;;;;52.43;29.73;;;1.30;99.90;;;;;;5008440;28;20420;-74
2021/01/17 08:35:19;;;;;;;49.13;25.53;;;1.30;99.90;;;;;;5001951;28;20544;-75
2021/01/17 08:38:05;;;;;;;51.40;25.33;;;1.30;99.90;;;;;;5027381;28;20501;-75
2021/01/17 08:40:42;;;;;;;53.97;25.70;;;1.30;99.90;;;;;;5004555;28;20806;-75
2021/01/17 08:43:12;;;;;;;51.10;27.87;;;1.30;99.90;;;;;;4992873;28;20512;-75
2021/01/17 08:45:42;;;;;;;47.87;26.60;;;1.40;99.90;;;;;;4993306;28;20478;-75
2021/01/17 08:48:16;;;;;;;47.20;26.40;;;1.30;99.90;;;;;;4996559;28;20449;-75
2021/01/17 08:50:43;;;;;;;48.17;25.87;;;1.20;99.90;;;;;;5020453;28;20451;-75
2021/01/17 08:53:09;;;;;;;50.90;28.73;;;1.30;99.90;;;;;;4992332;28;20526;-75
2021/01/17 08:55:40;;;;;;;54.10;26.33;;;1.30;99.90;;;;;;5005215;28;20542;-75
2021/01/17 08:58:06;;;;;;;49.50;26.33;;;1.30;99.90;;;;;;5008403;28;20208;-75
2021/01/17 09:00:51;;;;;;;51.93;26.93;;;1.40;99.90;;;;;;5002551;28;20446;-75
2021/01/17 09:03:24;;;;;;;48.30;24.40;;;1.50;99.90;;;;;;4998106;28;20470;-75
2021/01/17 09:05:51;;;;;;;46.70;23.40;;;1.60;99.90;;;;;;5008708;28;20570;-74
2021/01/17 09:08:18;;;;;;;49.50;25.10;;;1.60;99.90;;;;;;5008780;28;20444;-75
2021/01/17 09:10:44;;;;;;;48.47;25.40;;;1.60;99.90;;;;;;5006352;28;20932;-75
2021/01/17 09:13:29;;;;;;;49.03;27.17;;;1.50;99.90;;;;;;5011781;28;20403;-74
2021/01/17 09:16:04;;;;;;;54.77;25.17;;;1.50;99.90;;;;;;5009928;28;20493;-75
2021/01/17 09:18:34;;;;;;;50.07;25.60;;;1.50;99.90;;;;;;5006955;28;20461;-75
2021/01/17 09:21:00;;;;;;;45.00;23.80;;;1.50;99.90;;;;;;4997011;28;20435;-74
2021/01/17 09:23:26;;;;;;;51.17;26.73;;;1.50;99.90;;;;;;5014014;28;20831;-75
2021/01/17 09:26:00;;;;;;;47.60;27.10;;;1.50;99.90;;;;;;4997132;28;20466;-75
2021/01/17 09:28:27;;;;;;;48.87;26.03;;;1.50;99.90;;;;;;4998724;28;20437;-75
2021/01/17 09:30:55;;;;;;;38.40;25.63;;;1.40;99.90;;;;;;5003783;28;20528;-75
2021/01/17 09:33:21;;;;;;;43.43;23.47;;;1.40;99.90;;;;;;5004599;28;20465;-75
2021/01/17 09:35:48;;;;;;;42.57;24.10;;;1.50;99.90;;;;;;5001651;28;20474;-75
2021/01/17 09:38:16;;;;;;;46.87;26.90;;;1.60;99.90;;;;;;5020363;28;20773;-75
2021/01/17 09:40:44;;;;;;;44.83;25.63;;;1.60;99.90;;;;;;5026559;28;20475;-75
2021/01/17 09:43:10;;;;;;;47.13;25.47;;;1.60;99.90;;;;;;5004158;28;20461;-75
2021/01/17 09:45:36;;;;;;;46.40;25.80;;;1.70;99.90;;;;;;5019387;28;20455;-75
2021/01/17 09:48:02;;;;;;;46.87;25.90;;;1.80;99.90;;;;;;5001920;28;20533;-75
2021/01/17 09:50:32;;;;;;;46.60;25.87;;;1.70;99.90;;;;;;5012473;28;20678;-75
2021/01/17 09:53:08;;;;;;;46.63;24.30;;;1.80;99.90;;;;;;5012276;28;20431;-75
2021/01/17 09:55:38;;;;;;;49.03;24.93;;;2.00;99.90;;;;;;5029904;28;20459;-75
2021/01/17 09:58:14;;;;;;;37.70;21.53;;;2.00;99.90;;;;;;5014408;28;20430;-75
2021/01/17 10:00:41;;;;;;;45.43;26.40;;;2.20;99.90;;;;;;5014604;28;20403;-75
2021/01/17 10:03:08;;;;;;;42.17;24.03;;;2.10;99.90;;;;;;5013047;28;20515;-75
2021/01/17 10:05:36;;;;;;;43.67;24.93;;;2.20;99.90;;;;;;4996289;28;20474;-75
2021/01/17 10:08:09;;;;;;;48.97;25.43;;;2.10;99.90;;;;;;4998662;28;20466;-75
2021/01/17 10:10:37;;;;;;;48.40;24.40;;;2.20;99.90;;;;;;4994582;28;20470;-75
2021/01/17 10:13:03;;;;;;;40.23;22.77;;;2.20;99.90;;;;;;4994885;28;20780;-74
2021/01/17 10:15:29;;;;;;;40.97;24.03;;;2.30;99.90;;;;;;4998670;28;21020;-75
2021/01/17 10:17:55;;;;;;;40.40;24.20;;;2.40;99.90;;;;;;4998568;28;20434;-75
2021/01/17 10:20:31;;;;;;;40.57;23.60;;;2.50;99.90;;;;;;5011393;28;20191;-74
2021/01/17 10:23:02;;;;;;;45.27;23.77;;;2.50;99.90;;;;;;4994581;28;20250;-75
2021/01/17 10:25:28;;;;;;;38.83;23.73;;;2.70;99.90;;;;;;5009538;28;20980;-75
2021/01/17 10:28:05;;;;;;;44.80;25.60;;;2.70;99.90;;;;;;5014996;28;21011;-75
2021/01/17 10:30:33;;;;;;;39.90;23.30;;;2.70;99.90;;;;;;5001685;28;20427;-75
2021/01/17 10:33:06;;;;;;;41.60;23.43;;;2.80;99.90;;;;;;5006991;28;20455;-75
2021/01/17 10:35:44;;;;;;;41.60;25.40;;;2.90;99.90;;;;;;4994357;28;20502;-75
2021/01/17 10:38:11;;;;;;;37.90;22.50;;;3.00;99.90;;;;;;5001218;28;20427;-76
2021/01/17 10:40:38;;;;;;;44.30;23.83;;;3.10;99.90;;;;;;5010669;28;20430;-75
2021/01/17 10:43:07;;;;;;;47.73;24.17;;;3.10;99.90;;;;;;5013871;28;20970;-75
2021/01/17 10:45:34;;;;;;;44.60;25.13;;;3.10;99.90;;;;;;5023403;28;20468;-76
2021/01/17 10:48:07;;;;;;;46.07;24.77;;;3.20;99.90;;;;;;5001603;28;20469;-76
2021/01/17 10:50:58;;;;;;;48.17;27.10;;;3.00;99.90;;;;;;4993846;28;20433;-76
2021/01/17 10:53:46;;;;;;;39.10;22.83;;;3.10;99.90;;;;;;4994188;28;20411;-76
2021/01/17 10:56:16;;;;;;;49.13;27.20;;;3.10;99.90;;;;;;4994007;28;20408;-76
2021/01/17 10:58:44;;;;;;;43.30;24.70;;;3.10;99.90;;;;;;5005233;28;20423;-76
2021/01/17 11:01:09;;;;;;;42.97;23.50;;;2.90;99.90;;;;;;5006210;28;20436;-75
2021/01/17 11:03:36;;;;;;;45.40;25.10;;;2.90;99.90;;;;;;4997012;28;20816;-76
2021/01/17 11:06:23;;;;;;;48.10;24.40;;;2.90;99.90;;;;;;5012147;28;20290;-75
2021/01/17 11:08:50;;;;;;;41.60;23.97;;;3.00;99.90;;;;;;5001520;28;20436;-76
2021/01/17 11:11:18;;;;;;;44.93;26.60;;;3.00;99.90;;;;;;4998041;28;20511;-76
2021/01/17 11:13:54;;;;;;;46.87;25.20;;;3.00;99.90;;;;;;4993660;28;20790;-76
2021/01/17 11:16:38;;;;;;;40.27;26.30;;;2.90;99.90;;;;;;4993657;28;20416;-76
2021/01/17 11:19:14;;;;;;;40.33;24.70;;;3.00;99.90;;;;;;4993554;28;20413;-76
2021/01/17 11:21:41;;;;;;;43.70;26.23;;;3.10;99.90;;;;;;5009886;28;20818;-76
2021/01/17 11:24:07;;;;;;;44.17;24.97;;;3.10;99.90;;;;;;5013011;28;20446;-76
2021/01/17 11:26:33;;;;;;;45.77;25.23;;;3.10;99.90;;;;;;5013074;28;20414;-76
2021/01/17 11:29:01;;;;;;;51.83;25.50;;;3.20;99.90;;;;;;5013366;28;20413;-75
2021/01/17 11:31:27;;;;;;;47.53;23.40;;;3.30;99.90;;;;;;4998359;28;20424;-75
2021/01/17 11:33:54;;;;;;;48.57;24.57;;;3.20;99.90;;;;;;4993266;28;20531;-75
2021/01/17 11:36:27;;;;;;;50.00;27.73;;;3.10;99.90;;;;;;4993975;28;20462;-75
2021/01/17 11:38:54;;;;;;;42.30;23.70;;;3.00;99.90;;;;;;4993177;28;20431;-75
2021/01/17 11:41:35;;;;;;;46.97;25.20;;;3.20;99.90;;;;;;4995431;28;20902;-75
2021/01/17 11:44:09;;;;;;;44.50;27.63;;;3.30;99.90;;;;;;4993076;28;20443;-75
2021/01/17 11:46:34;;;;;;;37.33;23.07;;;3.30;99.90;;;;;;4993067;28;20438;-75
2021/01/17 11:49:00;;;;;;;48.57;28.60;;;3.30;99.90;;;;;;4999655;28;20509;-75
2021/01/17 11:51:26;;;;;;;45.57;24.87;;;3.40;99.90;;;;;;5012207;28;20184;-75
2021/01/17 11:53:51;;;;;;;46.23;24.77;;;3.40;99.90;;;;;;5021614;28;20192;-75
2021/01/17 11:56:17;;;;;;;46.13;23.80;;;3.50;99.90;;;;;;5012546;28;20176;-75
2021/01/17 11:58:43;;;;;;;47.07;25.60;;;3.60;99.90;;;;;;5011876;28;20203;-76
2021/01/17 12:01:09;;;;;;;43.57;24.77;;;3.60;99.90;;;;;;5001985;28;20180;-75
2021/01/17 12:03:38;;;;;;;46.33;25.40;;;3.60;99.90;;;;;;5007250;28;20184;-75
2021/01/17 12:06:16;;;;;;;38.23;23.43;;;3.50;99.90;;;;;;5011232;28;20208;-75
2021/01/17 12:08:47;;;;;;;46.70;25.27;;;3.40;99.90;;;;;;5012458;28;20410;-75
2021/01/17 12:11:33;;;;;;;41.97;24.53;;;3.40;99.90;;;;;;5006338;28;20428;-75
2021/01/17 12:14:00;;;;;;;43.20;23.87;;;3.30;99.90;;;;;;4991611;28;20490;-75
2021/01/17 12:16:31;;;;;;;39.67;23.80;;;3.30;99.90;;;;;;4998017;28;21017;-75
2021/01/17 12:18:57;;;;;;;48.80;26.40;;;3.30;99.90;;;;;;5009093;28;20421;-75
2021/01/17 12:21:24;;;;;;;38.17;22.40;;;3.40;99.90;;;;;;5020771;28;20417;-75
2021/01/17 12:23:49;;;;;;;39.43;23.53;;;3.50;99.90;;;;;;5019345;28;20449;-75
2021/01/17 12:26:17;;;;;;;42.73;22.63;;;3.50;99.90;;;;;;5005256;28;20458;-75
2021/01/17 12:28:43;;;;;;;42.33;24.80;;;3.50;99.90;;;;;;5025739;28;20176;-75
2021/01/17 12:31:11;;;;;;;41.87;24.73;;;3.50;99.90;;;;;;4992530;28;20420;-75
2021/01/17 12:33:36;;;;;;;41.77;25.30;;;3.60;99.90;;;;;;4999768;28;20419;-75
2021/01/17 12:36:07;;;;;;;40.37;24.23;;;3.70;99.90;;;;;;5008499;28;20438;-75
2021/01/17 12:38:34;;;;;;;47.80;26.60;;;3.70;99.90;;;;;;5002327;28;20184;-75
2021/01/17 12:40:59;;;;;;;37.13;24.77;;;3.70;99.90;;;;;;4992335;28;20478;-75
2021/01/17 12:43:25;;;;;;;50.60;28.43;;;3.80;99.90;;;;;;4995002;28;20450;-75
2021/01/17 12:45:51;;;;;;;45.43;26.63;;;3.80;99.90;;;;;;4998907;28;20878;-75
2021/01/17 12:48:17;;;;;;;46.33;26.20;;;3.90;99.90;;;;;;4999355;28;20911;-76
2021/01/17 12:50:42;;;;;;;37.43;23.37;;;3.80;99.90;;;;;;4999149;28;20176;-75
2021/01/17 12:53:08;;;;;;;46.30;27.60;;;3.80;99.90;;;;;;4999789;28;20562;-76